RYR5YR LIPH-LKPR
Flight info
| Callsign | RYR5YR |
|---|---|
| Flight time | 0h 58m |
| Altitude | 30000 |
| Route | ROKIB DCT BRENO M726 KOGOL N871 NENUM Z39 DOLUP DCT APRAQ |
| Aircraft | B738/M-SDE2E3FGHIRWXY/LB1 |
Departure
| Time | 2026-04-26 17:09 |
|---|---|
| Airport | Treviso Airport (LIPH) |
Arrival
| Time | 2026-04-26 18:07 |
|---|---|
| Airport | Václav Havel Airport Prague (LKPR) |
| Time | Latitude | Longitude | Altitude | Speed | Heading |
|---|---|---|---|---|---|
| 2026-04-26 16:46 | 45.65379 | 12.20432 | 61 ft | 0 kts | 339° |
| 2026-04-26 17:02 | 45.65366 | 12.20439 | 56 ft | 3 kts | 335° |
| 2026-04-26 17:02 | 45.65348 | 12.20451 | 53 ft | 3 kts | 338° |
| 2026-04-26 17:02 | 45.65329 | 12.20457 | 54 ft | 3 kts | 15° |
| 2026-04-26 17:03 | 45.65315 | 12.20443 | 58 ft | 3 kts | 71° |
| 2026-04-26 17:03 | 45.65310 | 12.20413 | 57 ft | 3 kts | 75° |
| 2026-04-26 17:03 | 45.65308 | 12.20400 | 55 ft | 1 kts | 70° |
| 2026-04-26 17:06 | 45.65309 | 12.20405 | 56 ft | 2 kts | 70° |
| 2026-04-26 17:06 | 45.65319 | 12.20446 | 57 ft | 7 kts | 70° |
| 2026-04-26 17:07 | 45.65342 | 12.20531 | 59 ft | 13 kts | 69° |
| 2026-04-26 17:07 | 45.65378 | 12.20692 | 58 ft | 9 kts | 97° |
| 2026-04-26 17:07 | 45.65300 | 12.20768 | 59 ft | 16 kts | 158° |
| 2026-04-26 17:07 | 45.65236 | 12.20805 | 58 ft | 1 kts | 170° |
| 2026-04-26 17:08 | 45.65228 | 12.20803 | 58 ft | 1 kts | 194° |
| 2026-04-26 17:08 | 45.65215 | 12.20774 | 56 ft | 18 kts | 246° |
| 2026-04-26 17:08 | 45.65052 | 12.20164 | 60 ft | 112 kts | 249° |
| 2026-04-26 17:08 | 45.64691 | 12.18763 | 146 ft | 182 kts | 249° |
| 2026-04-26 17:09 | 45.64206 | 12.16920 | 876 ft | 209 kts | 246° |
| 2026-04-26 17:09 | 45.63862 | 12.15610 | 1492 ft | 217 kts | 247° |
| 2026-04-26 17:09 | 45.63120 | 12.12856 | 2794 ft | 227 kts | 248° |
| 2026-04-26 17:09 | 45.62497 | 12.10710 | 3692 ft | 237 kts | 245° |
| 2026-04-26 17:10 | 45.61785 | 12.08658 | 4653 ft | 234 kts | 243° |
| 2026-04-26 17:10 | 45.61039 | 12.06588 | 5340 ft | 237 kts | 244° |
| 2026-04-26 17:10 | 45.60298 | 12.04443 | 5945 ft | 243 kts | 245° |
| 2026-04-26 17:10 | 45.59559 | 12.02237 | 6519 ft | 250 kts | 245° |
| 2026-04-26 17:11 | 45.58947 | 11.99854 | 6906 ft | 266 kts | 265° |
| 2026-04-26 17:11 | 45.59124 | 11.97196 | 7547 ft | 274 kts | 287° |
| 2026-04-26 17:11 | 45.59728 | 11.94596 | 8400 ft | 277 kts | 290° |
| 2026-04-26 17:11 | 45.60694 | 11.92218 | 9193 ft | 281 kts | 315° |
| 2026-04-26 17:12 | 45.64069 | 11.89362 | 10643 ft | 295 kts | 335° |
| 2026-04-26 17:12 | 45.66004 | 11.88114 | 10823 ft | 321 kts | 335° |
| 2026-04-26 17:13 | 45.70327 | 11.85257 | 11426 ft | 358 kts | 334° |
| 2026-04-26 17:13 | 45.72587 | 11.83732 | 12008 ft | 366 kts | 334° |
| 2026-04-26 17:13 | 45.77232 | 11.80538 | 13446 ft | 373 kts | 333° |
| 2026-04-26 17:14 | 45.79575 | 11.78916 | 14114 ft | 378 kts | 333° |
| 2026-04-26 17:14 | 45.84368 | 11.75598 | 15422 ft | 385 kts | 332° |
| 2026-04-26 17:14 | 45.86793 | 11.73920 | 16079 ft | 389 kts | 332° |
| 2026-04-26 17:15 | 45.91718 | 11.70507 | 17339 ft | 397 kts | 332° |
| 2026-04-26 17:15 | 45.94255 | 11.68893 | 17937 ft | 403 kts | 340° |
| 2026-04-26 17:15 | 45.96988 | 11.67916 | 18507 ft | 409 kts | 346° |
| 2026-04-26 17:16 | 45.99769 | 11.67125 | 19074 ft | 412 kts | 346° |
| 2026-04-26 17:16 | 46.02602 | 11.66359 | 19637 ft | 415 kts | 346° |
| 2026-04-26 17:16 | 46.05426 | 11.65590 | 20131 ft | 417 kts | 346° |
| 2026-04-26 17:16 | 46.08317 | 11.64781 | 20644 ft | 421 kts | 346° |
| 2026-04-26 17:17 | 46.11206 | 11.63952 | 21146 ft | 425 kts | 345° |
| 2026-04-26 17:17 | 46.14107 | 11.63103 | 21655 ft | 428 kts | 345° |
| 2026-04-26 17:17 | 46.17045 | 11.62232 | 22144 ft | 431 kts | 345° |
| 2026-04-26 17:17 | 46.19994 | 11.61353 | 22628 ft | 433 kts | 345° |
| 2026-04-26 17:18 | 46.22959 | 11.60467 | 23061 ft | 437 kts | 345° |
| 2026-04-26 17:18 | 46.25948 | 11.59571 | 23480 ft | 440 kts | 345° |
| 2026-04-26 17:18 | 46.28955 | 11.58669 | 23898 ft | 442 kts | 345° |
| 2026-04-26 17:18 | 46.31925 | 11.57778 | 24294 ft | 443 kts | 345° |
| 2026-04-26 17:19 | 46.37996 | 11.55955 | 25013 ft | 447 kts | 345° |
| 2026-04-26 17:19 | 46.41057 | 11.55033 | 25369 ft | 450 kts | 345° |
| 2026-04-26 17:19 | 46.44120 | 11.54110 | 25770 ft | 451 kts | 345° |
| 2026-04-26 17:20 | 46.47181 | 11.53187 | 26150 ft | 452 kts | 345° |
| 2026-04-26 17:20 | 46.49245 | 11.52564 | 26380 ft | 454 kts | 345° |
| 2026-04-26 17:20 | 46.53349 | 11.51322 | 26839 ft | 457 kts | 345° |
| 2026-04-26 17:20 | 46.56512 | 11.50364 | 27244 ft | 457 kts | 345° |
| 2026-04-26 17:21 | 46.59640 | 11.49418 | 27569 ft | 458 kts | 345° |
| 2026-04-26 17:21 | 46.62758 | 11.48472 | 27857 ft | 460 kts | 345° |
| 2026-04-26 17:21 | 46.65850 | 11.47533 | 28244 ft | 459 kts | 345° |
| 2026-04-26 17:21 | 46.69000 | 11.46577 | 28829 ft | 455 kts | 345° |
| 2026-04-26 17:22 | 46.72060 | 11.45646 | 29410 ft | 452 kts | 346° |
| 2026-04-26 17:22 | 46.75128 | 11.44711 | 29953 ft | 449 kts | 346° |
| 2026-04-26 17:22 | 46.78198 | 11.43773 | 30087 ft | 453 kts | 346° |
| 2026-04-26 17:22 | 46.81286 | 11.42828 | 30098 ft | 453 kts | 346° |
| 2026-04-26 17:23 | 46.87419 | 11.40951 | 30101 ft | 446 kts | 346° |
| 2026-04-26 17:23 | 46.93495 | 11.39087 | 30117 ft | 446 kts | 346° |
| 2026-04-26 17:24 | 46.99542 | 11.37768 | 30126 ft | 450 kts | 358° |
| 2026-04-26 17:24 | 47.05795 | 11.38346 | 30128 ft | 452 kts | 3° |
| 2026-04-26 17:25 | 47.12060 | 11.39089 | 30131 ft | 451 kts | 2° |
| 2026-04-26 17:25 | 47.15648 | 11.39467 | 30157 ft | 451 kts | 2° |
| 2026-04-26 17:26 | 47.21926 | 11.40093 | 30136 ft | 453 kts | 2° |
| 2026-04-26 17:26 | 47.28230 | 11.40310 | 30129 ft | 452 kts | 358° |
| 2026-04-26 17:27 | 47.34476 | 11.40204 | 30135 ft | 452 kts | 358° |
| 2026-04-26 17:27 | 47.40778 | 11.40186 | 30131 ft | 453 kts | 358° |
| 2026-04-26 17:28 | 47.47090 | 11.40133 | 30140 ft | 453 kts | 358° |
| 2026-04-26 17:28 | 47.53381 | 11.40075 | 30151 ft | 452 kts | 358° |
| 2026-04-26 17:29 | 47.56532 | 11.40386 | 30133 ft | 455 kts | 11° |
| 2026-04-26 17:29 | 47.58522 | 11.41338 | 30171 ft | 458 kts | 22° |
| 2026-04-26 17:29 | 47.62028 | 11.44964 | 30172 ft | 465 kts | 45° |
| 2026-04-26 17:29 | 47.63974 | 11.48797 | 30164 ft | 470 kts | 61° |
| 2026-04-26 17:30 | 47.65158 | 11.53331 | 30179 ft | 472 kts | 72° |
| 2026-04-26 17:30 | 47.66061 | 11.58020 | 30165 ft | 472 kts | 73° |
| 2026-04-26 17:30 | 47.67872 | 11.67417 | 30156 ft | 474 kts | 72° |
| 2026-04-26 17:31 | 47.69735 | 11.76626 | 30156 ft | 470 kts | 72° |
| 2026-04-26 17:31 | 47.71546 | 11.85953 | 30162 ft | 471 kts | 74° |
| 2026-04-26 17:32 | 47.74172 | 11.94763 | 30173 ft | 470 kts | 53° |
| 2026-04-26 17:32 | 47.78703 | 12.01670 | 30192 ft | 467 kts | 37° |
| 2026-04-26 17:33 | 47.83808 | 12.07727 | 30177 ft | 469 kts | 37° |
| 2026-04-26 17:34 | 47.91331 | 12.16912 | 30187 ft | 470 kts | 38° |
| 2026-04-26 17:34 | 47.96371 | 12.23153 | 30192 ft | 471 kts | 38° |
| 2026-04-26 17:35 | 48.01385 | 12.29363 | 30198 ft | 472 kts | 38° |
| 2026-04-26 17:35 | 48.06391 | 12.35577 | 30205 ft | 472 kts | 38° |
| 2026-04-26 17:36 | 48.11451 | 12.41879 | 30195 ft | 472 kts | 38° |
| 2026-04-26 17:36 | 48.16471 | 12.48157 | 30196 ft | 473 kts | 38° |
| 2026-04-26 17:37 | 48.21486 | 12.54443 | 30209 ft | 473 kts | 38° |
| 2026-04-26 17:37 | 48.26657 | 12.60599 | 30206 ft | 473 kts | 34° |
| 2026-04-26 17:38 | 48.34580 | 12.69268 | 30196 ft | 473 kts | 34° |
| 2026-04-26 17:38 | 48.39864 | 12.75194 | 30174 ft | 475 kts | 36° |
| 2026-04-26 17:39 | 48.44805 | 12.81889 | 30203 ft | 480 kts | 41° |
| 2026-04-26 17:39 | 48.49635 | 12.88844 | 30211 ft | 482 kts | 40° |
| 2026-04-26 17:40 | 48.52904 | 12.93391 | 30203 ft | 482 kts | 38° |
| 2026-04-26 17:40 | 48.57469 | 12.98098 | 30214 ft | 477 kts | 25° |
| 2026-04-26 17:40 | 48.60396 | 13.00511 | 30200 ft | 476 kts | 25° |
| 2026-04-26 17:41 | 48.66147 | 13.05298 | 30201 ft | 471 kts | 26° |
| 2026-04-26 17:41 | 48.71852 | 13.10220 | 30210 ft | 471 kts | 26° |
| 2026-04-26 17:42 | 48.77569 | 13.15161 | 29957 ft | 473 kts | 26° |
| 2026-04-26 17:42 | 48.80417 | 13.17625 | 29686 ft | 469 kts | 26° |
| 2026-04-26 17:42 | 48.83252 | 13.20079 | 29425 ft | 470 kts | 26° |
| 2026-04-26 17:43 | 48.86092 | 13.22540 | 29150 ft | 472 kts | 26° |
| 2026-04-26 17:43 | 48.88980 | 13.24943 | 28898 ft | 468 kts | 22° |
| 2026-04-26 17:43 | 48.91914 | 13.26926 | 28646 ft | 459 kts | 19° |
| 2026-04-26 17:43 | 48.94845 | 13.28736 | 28379 ft | 455 kts | 18° |
| 2026-04-26 17:44 | 48.97783 | 13.30521 | 28109 ft | 455 kts | 18° |
| 2026-04-26 17:44 | 49.00720 | 13.32337 | 27860 ft | 453 kts | 19° |
| 2026-04-26 17:44 | 49.03623 | 13.34173 | 27601 ft | 452 kts | 19° |
| 2026-04-26 17:44 | 49.06520 | 13.36032 | 27345 ft | 450 kts | 19° |
| 2026-04-26 17:45 | 49.09399 | 13.37891 | 27269 ft | 451 kts | 20° |
| 2026-04-26 17:45 | 49.11276 | 13.39311 | 27234 ft | 453 kts | 26° |
| 2026-04-26 17:45 | 49.13932 | 13.42032 | 27230 ft | 456 kts | 36° |
| 2026-04-26 17:45 | 49.16325 | 13.45220 | 27243 ft | 457 kts | 39° |
| 2026-04-26 17:46 | 49.18627 | 13.48412 | 27227 ft | 458 kts | 39° |
| 2026-04-26 17:46 | 49.20975 | 13.51694 | 27246 ft | 458 kts | 39° |
| 2026-04-26 17:46 | 49.23339 | 13.54988 | 27248 ft | 457 kts | 39° |
| 2026-04-26 17:46 | 49.25691 | 13.58243 | 27235 ft | 457 kts | 39° |
| 2026-04-26 17:47 | 49.28062 | 13.61508 | 27239 ft | 457 kts | 39° |
| 2026-04-26 17:47 | 49.29628 | 13.63657 | 27238 ft | 456 kts | 39° |
| 2026-04-26 17:47 | 49.32792 | 13.67993 | 27253 ft | 456 kts | 39° |
| 2026-04-26 17:47 | 49.35148 | 13.71224 | 27249 ft | 456 kts | 39° |
| 2026-04-26 17:48 | 49.37519 | 13.74480 | 27252 ft | 456 kts | 39° |
| 2026-04-26 17:48 | 49.39876 | 13.77723 | 27237 ft | 448 kts | 39° |
| 2026-04-26 17:48 | 49.42153 | 13.80866 | 27235 ft | 431 kts | 39° |
| 2026-04-26 17:48 | 49.44311 | 13.83850 | 27228 ft | 415 kts | 39° |
| 2026-04-26 17:49 | 49.46418 | 13.86766 | 27216 ft | 400 kts | 38° |
| 2026-04-26 17:49 | 49.48482 | 13.89619 | 26488 ft | 404 kts | 38° |
| 2026-04-26 17:49 | 49.50628 | 13.92578 | 25243 ft | 422 kts | 39° |
| 2026-04-26 17:49 | 49.52860 | 13.95662 | 24201 ft | 435 kts | 39° |
| 2026-04-26 17:50 | 49.55112 | 13.98790 | 23510 ft | 435 kts | 39° |
| 2026-04-26 17:50 | 49.57347 | 14.01904 | 23011 ft | 428 kts | 39° |
| 2026-04-26 17:50 | 49.59532 | 14.04949 | 22501 ft | 422 kts | 39° |
| 2026-04-26 17:50 | 49.61709 | 14.07985 | 21937 ft | 419 kts | 39° |
| 2026-04-26 17:51 | 49.63910 | 14.10925 | 21327 ft | 413 kts | 32° |
| 2026-04-26 17:51 | 49.66419 | 14.12885 | 20766 ft | 403 kts | 13° |
| 2026-04-26 17:51 | 49.69116 | 14.13858 | 20269 ft | 395 kts | 10° |
| 2026-04-26 17:51 | 49.71671 | 14.15451 | 19721 ft | 400 kts | 28° |
| 2026-04-26 17:52 | 49.73831 | 14.18176 | 19202 ft | 403 kts | 43° |
| 2026-04-26 17:52 | 49.75517 | 14.21599 | 18697 ft | 405 kts | 57° |
| 2026-04-26 17:52 | 49.76878 | 14.25426 | 18151 ft | 403 kts | 58° |
| 2026-04-26 17:52 | 49.78206 | 14.29231 | 17615 ft | 399 kts | 58° |
| 2026-04-26 17:53 | 49.79514 | 14.32949 | 17098 ft | 396 kts | 58° |
| 2026-04-26 17:53 | 49.80836 | 14.36650 | 16528 ft | 393 kts | 58° |
| 2026-04-26 17:53 | 49.82172 | 14.40361 | 15892 ft | 392 kts | 57° |
| 2026-04-26 17:54 | 49.84712 | 14.47601 | 14661 ft | 376 kts | 65° |
| 2026-04-26 17:54 | 49.85235 | 14.51567 | 14056 ft | 378 kts | 88° |
| 2026-04-26 17:54 | 49.84830 | 14.55573 | 13413 ft | 381 kts | 107° |
| 2026-04-26 17:54 | 49.83608 | 14.59221 | 12770 ft | 385 kts | 126° |
| 2026-04-26 17:55 | 49.81969 | 14.62511 | 12158 ft | 382 kts | 128° |
| 2026-04-26 17:55 | 49.80335 | 14.65715 | 11519 ft | 375 kts | 128° |
| 2026-04-26 17:55 | 49.78774 | 14.68827 | 10898 ft | 367 kts | 127° |
| 2026-04-26 17:55 | 49.77219 | 14.71991 | 10306 ft | 363 kts | 124° |
| 2026-04-26 17:56 | 49.76162 | 14.75491 | 9648 ft | 359 kts | 102° |
| 2026-04-26 17:56 | 49.76708 | 14.82803 | 8369 ft | 341 kts | 61° |
| 2026-04-26 17:57 | 49.79839 | 14.87829 | 7047 ft | 323 kts | 19° |
| 2026-04-26 17:57 | 49.82054 | 14.88318 | 5862 ft | 328 kts | 349° |
| 2026-04-26 17:57 | 49.84040 | 14.86876 | 5536 ft | 309 kts | 318° |
| 2026-04-26 17:57 | 49.85431 | 14.84507 | 5413 ft | 287 kts | 308° |
| 2026-04-26 17:58 | 49.88259 | 14.77182 | 5215 ft | 252 kts | 301° |
| 2026-04-26 17:59 | 49.89971 | 14.72542 | 5329 ft | 247 kts | 301° |
| 2026-04-26 17:59 | 49.90833 | 14.70234 | 5413 ft | 247 kts | 301° |
| 2026-04-26 17:59 | 49.91699 | 14.67926 | 5494 ft | 248 kts | 301° |
| 2026-04-26 17:59 | 49.92569 | 14.65616 | 5567 ft | 245 kts | 301° |
| 2026-04-26 18:00 | 49.93400 | 14.63412 | 5613 ft | 236 kts | 301° |
| 2026-04-26 18:00 | 49.94214 | 14.61254 | 5619 ft | 225 kts | 301° |
| 2026-04-26 18:00 | 49.94986 | 14.59211 | 5583 ft | 213 kts | 302° |
| 2026-04-26 18:00 | 49.95709 | 14.57294 | 5505 ft | 198 kts | 302° |
| 2026-04-26 18:01 | 49.96380 | 14.55514 | 5390 ft | 184 kts | 302° |
| 2026-04-26 18:01 | 49.97029 | 14.53796 | 5197 ft | 186 kts | 302° |
| 2026-04-26 18:01 | 49.97683 | 14.52063 | 4953 ft | 186 kts | 302° |
| 2026-04-26 18:01 | 49.98352 | 14.50356 | 4703 ft | 183 kts | 306° |
| 2026-04-26 18:02 | 49.99098 | 14.48769 | 4463 ft | 179 kts | 309° |
| 2026-04-26 18:02 | 49.99584 | 14.47765 | 4346 ft | 171 kts | 309° |
| 2026-04-26 18:02 | 50.00489 | 14.45892 | 4013 ft | 153 kts | 309° |
| 2026-04-26 18:02 | 50.01099 | 14.44622 | 3877 ft | 141 kts | 309° |
| 2026-04-26 18:03 | 50.01686 | 14.43402 | 3661 ft | 144 kts | 309° |
| 2026-04-26 18:03 | 50.02287 | 14.42158 | 3463 ft | 146 kts | 309° |
| 2026-04-26 18:03 | 50.02900 | 14.40891 | 3255 ft | 144 kts | 309° |
| 2026-04-26 18:03 | 50.03497 | 14.39656 | 3074 ft | 144 kts | 310° |
| 2026-04-26 18:04 | 50.04102 | 14.38404 | 2882 ft | 146 kts | 310° |
| 2026-04-26 18:04 | 50.04706 | 14.37149 | 2679 ft | 143 kts | 310° |
| 2026-04-26 18:04 | 50.05304 | 14.35912 | 2510 ft | 141 kts | 310° |
| 2026-04-26 18:05 | 50.06472 | 14.33498 | 2067 ft | 138 kts | 310° |
| 2026-04-26 18:05 | 50.07053 | 14.32310 | 1858 ft | 137 kts | 310° |
| 2026-04-26 18:05 | 50.07608 | 14.31133 | 1681 ft | 133 kts | 309° |
| 2026-04-26 18:05 | 50.08165 | 14.29959 | 1501 ft | 137 kts | 310° |
| 2026-04-26 18:06 | 50.08750 | 14.28763 | 1354 ft | 138 kts | 309° |
| 2026-04-26 18:06 | 50.09317 | 14.27597 | 1220 ft | 129 kts | 309° |
| 2026-04-26 18:06 | 50.09802 | 14.26605 | 1205 ft | 97 kts | 307° |
| 2026-04-26 18:06 | 50.10141 | 14.25909 | 1189 ft | 71 kts | 308° |
| 2026-04-26 18:07 | 50.10394 | 14.25658 | 1183 ft | 25 kts | 359° |
| 2026-04-26 18:07 | 50.10531 | 14.25715 | 1173 ft | 20 kts | 32° |
| 2026-04-26 18:07 | 50.10648 | 14.25838 | 1171 ft | 20 kts | 35° |
| 2026-04-26 18:07 | 50.10723 | 14.25917 | 1170 ft | 20 kts | 34° |
| 2026-04-26 18:08 | 50.10867 | 14.26072 | 1171 ft | 15 kts | 35° |
| 2026-04-26 18:08 | 50.10935 | 14.26144 | 1170 ft | 6 kts | 32° |
| 2026-04-26 18:08 | 50.10946 | 14.26180 | 1167 ft | 3 kts | 104° |
| 2026-04-26 18:08 | 50.10932 | 14.26204 | 1170 ft | 3 kts | 127° |
| 2026-04-26 18:09 | 50.10920 | 14.26231 | 1172 ft | 3 kts | 124° |
| 2026-04-26 18:09 | 50.10912 | 14.26248 | 1172 ft | 1 kts | 124° |
| 2026-04-26 18:09 | 50.10911 | 14.26250 | 1172 ft | 0 kts | 124° |